Time;durP1;ratioP1;P1;durP2;ratioP2;P2;SDS_P1;SDS_P2;PMS_P1;PMS_P2;Temp;Humidity;BMP_temperature;BMP_pressure;BME280_temperature;BME280_humidity;BME280_pressure;Samples;Min_cycle;Max_cycle;Signal;HPM_P1;HPM_P2
2023/01/19 00:01:21;;;;;;;23.75;14.32;;;;;;;1.52;100.00;96647.59;5016289;28;20821;-62
2023/01/19 00:03:47;;;;;;;24.15;14.75;;;;;;;1.63;100.00;96656.88;5008074;28;20392;-61
2023/01/19 00:06:12;;;;;;;23.17;14.63;;;;;;;1.63;100.00;96657.69;5018363;28;20039;-59
2023/01/19 00:08:38;;;;;;;26.13;15.95;;;;;;;1.65;100.00;96650.66;5033170;28;20112;-61
2023/01/19 00:11:05;;;;;;;28.20;17.38;;;;;;;1.63;100.00;96662.81;5003241;28;20029;-62
2023/01/19 00:13:31;;;;;;;28.73;18.27;;;;;;;1.55;100.00;96662.66;5005426;28;20124;-60
2023/01/19 00:15:57;;;;;;;29.75;18.83;;;;;;;1.65;100.00;96660.91;5023259;28;20546;-60
2023/01/19 00:18:23;;;;;;;32.83;18.63;;;;;;;1.57;100.00;96659.97;5019711;28;20139;-60
2023/01/19 00:20:49;;;;;;;33.10;18.52;;;;;;;1.51;100.00;96667.25;5013442;28;20135;-61
2023/01/19 00:23:15;;;;;;;29.92;16.80;;;;;;;1.56;100.00;96664.28;5008034;28;20038;-60
2023/01/19 00:25:44;;;;;;;30.98;18.45;;;;;;;1.56;100.00;96660.94;5036179;28;20029;-59
2023/01/19 00:28:14;;;;;;;31.70;18.55;;;;;;;1.54;100.00;96659.31;5025359;28;20727;-59
2023/01/19 00:30:41;;;;;;;33.42;18.80;;;;;;;1.49;100.00;96655.53;5015807;28;20421;-59
2023/01/19 00:33:06;;;;;;;30.38;18.15;;;;;;;1.50;100.00;96659.72;5023355;28;20036;-59
2023/01/19 00:35:33;;;;;;;29.80;18.30;;;;;;;1.37;100.00;96657.44;5013420;28;20031;-60
2023/01/19 00:37:59;;;;;;;27.35;15.52;;;;;;;1.26;100.00;96660.94;5020330;28;20091;-63
2023/01/19 00:40:24;;;;;;;21.63;13.57;;;;;;;1.49;100.00;96664.03;5029351;28;20739;-64
2023/01/19 00:42:50;;;;;;;20.42;12.40;;;;;;;1.74;100.00;96661.84;5021162;28;20031;-64
2023/01/19 00:45:18;;;;;;;17.63;10.50;;;;;;;1.98;100.00;96661.41;5022695;28;20060;-62
2023/01/19 00:47:45;;;;;;;13.82;9.00;;;;;;;2.21;100.00;96656.75;5004527;28;20036;-62
2023/01/19 00:50:17;;;;;;;15.93;9.25;;;;;;;2.31;100.00;96664.41;5023024;28;20029;-65
2023/01/19 00:52:44;;;;;;;11.45;7.10;;;;;;;2.45;100.00;96658.03;5018867;28;20040;-62
2023/01/19 00:55:12;;;;;;;14.55;8.82;;;;;;;2.48;100.00;96655.97;5021034;28;20036;-60
2023/01/19 00:57:38;;;;;;;13.73;8.05;;;;;;;2.34;100.00;96653.88;5009562;28;20029;-61
2023/01/19 01:00:11;;;;;;;15.38;7.43;;;;;;;2.50;100.00;96655.81;5025808;28;20025;-60
2023/01/19 01:02:38;;;;;;;10.73;5.82;;;;;;;2.77;95.28;96675.53;5014025;28;21315;-62
2023/01/19 01:05:05;;;;;;;10.48;6.35;;;;;;;2.87;92.52;96665.25;5019956;28;20379;-65
2023/01/19 01:07:33;;;;;;;9.13;5.38;;;;;;;2.78;88.50;96613.00;5035049;28;20028;-61
2023/01/19 01:10:00;;;;;;;11.10;6.23;;;;;;;3.08;87.00;96664.97;5022801;28;20072;-62
2023/01/19 01:12:25;;;;;;;9.75;5.90;;;;;;;3.09;86.37;96651.19;5016908;28;20029;-60
2023/01/19 01:14:51;;;;;;;9.30;4.97;;;;;;;3.10;84.86;96665.63;5022654;28;20575;-65
2023/01/19 01:17:16;;;;;;;11.05;5.30;;;;;;;3.15;82.32;96658.28;5033489;28;20036;-60
2023/01/19 01:19:42;;;;;;;9.25;5.05;;;;;;;3.22;77.63;96650.81;5024886;28;20419;-60
2023/01/19 01:22:08;;;;;;;8.65;4.35;;;;;;;3.35;75.79;96650.47;5017557;28;20017;-62
2023/01/19 01:24:34;;;;;;;7.70;3.72;;;;;;;3.42;72.91;96646.34;5006886;28;20033;-61
2023/01/19 01:27:00;;;;;;;7.88;3.88;;;;;;;3.55;70.77;96658.81;5038054;28;20120;-62
2023/01/19 01:29:26;;;;;;;7.72;3.50;;;;;;;3.50;70.56;96651.53;5025627;28;20183;-62
2023/01/19 01:31:51;;;;;;;6.78;3.40;;;;;;;3.60;68.25;96654.84;5040441;28;20535;-63
2023/01/19 01:34:17;;;;;;;7.00;3.30;;;;;;;3.41;66.13;96607.00;5027258;28;20033;-61
2023/01/19 01:36:43;;;;;;;6.00;3.00;;;;;;;3.79;64.81;96653.03;5017993;28;20474;-63
2023/01/19 01:39:08;;;;;;;6.65;3.00;;;;;;;3.53;65.16;96599.06;5022251;28;20115;-62
2023/01/19 01:41:34;;;;;;;5.93;2.45;;;;;;;3.83;62.87;96657.75;5043124;28;20380;-63
2023/01/19 01:44:01;;;;;;;4.85;2.15;;;;;;;3.90;61.41;96657.16;5008004;28;20120;-63
2023/01/19 01:46:29;;;;;;;5.22;2.40;;;;;;;3.93;57.46;96649.94;5009546;28;20399;-60
2023/01/19 01:48:58;;;;;;;4.35;2.00;;;;;;;3.62;58.26;96616.16;5023014;28;20040;-63
2023/01/19 01:51:32;;;;;;;4.65;1.80;;;;;;;3.85;58.14;96655.84;5026240;28;20057;-60
2023/01/19 01:54:08;;;;;;;4.97;1.60;;;;;;;3.86;56.52;96659.22;5002737;28;20025;-62
2023/01/19 01:56:37;;;;;;;3.95;1.70;;;;;;;3.85;54.57;96658.41;5044944;28;20048;-61
2023/01/19 01:59:06;;;;;;;4.32;1.70;;;;;;;3.90;54.75;96657.94;5027165;28;20495;-62
2023/01/19 02:04:16;;;;;;;4.28;1.50;;;;;;;4.04;51.42;96651.44;5036289;28;20045;-64
2023/01/19 02:14:56;;;;;;;2.78;1.00;;;;;;;4.13;52.46;96660.81;5028690;28;20166;-62
2023/01/19 02:17:22;;;;;;;2.75;0.95;;;;;;;3.83;50.55;96619.19;5033434;28;20503;-61
2023/01/19 02:19:47;;;;;;;3.17;1.00;;;;;;;4.10;47.91;96658.56;5012773;28;20096;-62
2023/01/19 02:22:22;;;;;;;3.20;0.98;;;;;;;4.12;45.41;96664.34;5035273;28;20067;-63
2023/01/19 02:24:50;;;;;;;2.65;0.90;;;;;;;4.09;44.48;96667.25;5025174;28;20056;-63
2023/01/19 02:27:16;;;;;;;2.10;0.80;;;;;;;4.24;42.36;96652.06;5021316;28;20037;-62
2023/01/19 02:29:42;;;;;;;2.25;0.57;;;;;;;4.30;40.84;96651.44;5005608;28;20098;-61
2023/01/19 02:32:08;;;;;;;2.53;1.02;;;;;;;4.12;41.92;96628.34;5023130;28;20021;-61
2023/01/19 02:34:34;;;;;;;2.63;0.85;;;;;;;4.23;42.01;96655.56;5010637;28;20033;-61
2023/01/19 02:37:10;;;;;;;2.38;0.77;;;;;;;4.40;40.42;96652.13;5012380;28;20029;-61
2023/01/19 02:39:46;;;;;;;2.47;0.70;;;;;;;4.04;42.27;96605.97;5020013;28;20084;-61
2023/01/19 02:42:16;;;;;;;3.20;0.82;;;;;;;4.26;42.46;96654.47;5039339;28;20056;-61
2023/01/19 02:44:42;;;;;;;;;;;;;;;4.22;44.13;96653.97;5041760;28;20036;-62
2023/01/19 02:47:08;;;;;;;2.50;0.80;;;;;;;4.19;44.40;96649.13;5017363;28;19924;-60
2023/01/19 02:49:33;;;;;;;2.03;0.75;;;;;;;4.17;43.39;96645.91;5011534;28;20036;-61
2023/01/19 02:51:59;;;;;;;3.05;1.02;;;;;;;4.15;43.12;96652.97;5022061;28;20052;-63
2023/01/19 02:55:02;;;;;;;2.70;0.90;;;;;;;4.12;42.35;96654.06;5019467;28;20562;-65
2023/01/19 02:57:42;;;;;;;1.88;0.68;;;;;;;4.05;43.45;96637.63;5031200;28;20033;-62
2023/01/19 03:00:22;;;;;;;;;;;;;;;4.18;42.85;96648.31;5021166;28;20029;-60
2023/01/19 03:03:00;;;;;;;2.15;0.70;;;;;;;4.13;43.20;96634.31;5019748;28;19920;-61
2023/01/19 03:05:44;;;;;;;2.55;0.80;;;;;;;4.22;43.81;96646.25;5016588;28;20765;-61
2023/01/19 03:08:19;;;;;;;2.30;0.80;;;;;;;4.30;41.57;96646.28;5028326;28;20112;-61
2023/01/19 03:10:59;;;;;;;1.80;0.68;;;;;;;4.25;41.90;96651.06;5013346;28;20080;-61
2023/01/19 03:13:40;;;;;;;3.13;0.75;;;;;;;4.18;44.51;96653.47;5007238;28;20136;-63
2023/01/19 03:16:17;;;;;;;2.35;0.73;;;;;;;4.20;40.19;96654.13;5040354;28;20040;-64
2023/01/19 03:18:46;;;;;;;2.22;0.73;;;;;;;4.26;38.53;96650.13;5022300;28;20032;-62
2023/01/19 03:21:13;;;;;;;2.17;0.70;;;;;;;4.26;41.21;96644.19;5026079;28;20557;-59
2023/01/19 03:23:40;;;;;;;2.00;0.68;;;;;;;4.16;40.38;96631.41;5009926;28;20025;-62
2023/01/19 03:26:10;;;;;;;1.83;0.65;;;;;;;4.31;41.98;96641.94;5019059;28;20041;-65
2023/01/19 03:28:38;;;;;;;2.47;0.80;;;;;;;4.23;39.52;96638.38;5025531;28;20530;-61
2023/01/19 03:31:15;;;;;;;2.15;0.70;;;;;;;3.94;39.32;96609.59;5022029;28;20373;-64
2023/01/19 03:33:44;;;;;;;3.10;0.98;;;;;;;3.87;39.19;96595.72;5006772;28;20036;-64
2023/01/19 03:36:20;;;;;;;2.13;0.63;;;;;;;4.09;40.37;96644.09;5028664;28;20029;-63
2023/01/19 03:38:47;;;;;;;3.05;0.80;;;;;;;4.08;38.29;96637.31;5002418;28;20118;-62
2023/01/19 03:41:15;;;;;;;2.40;0.73;;;;;;;4.16;38.64;96637.38;5014859;28;20037;-62
2023/01/19 03:43:41;;;;;;;1.30;0.60;;;;;;;4.35;43.87;96644.06;5022900;28;20035;-62
2023/01/19 03:46:09;;;;;;;2.17;0.65;;;;;;;4.28;39.97;96637.91;5023269;28;20052;-60
2023/01/19 03:48:35;;;;;;;3.20;1.00;;;;;;;4.10;41.49;96601.97;5010369;28;20498;-60
2023/01/19 03:51:06;;;;;;;1.63;0.60;;;;;;;4.23;39.16;96640.97;5017083;28;20037;-61
2023/01/19 03:53:32;;;;;;;2.75;0.75;;;;;;;4.19;41.16;96644.78;5017948;28;20111;-61
2023/01/19 03:55:58;;;;;;;2.38;0.73;;;;;;;4.19;39.07;96641.41;5007671;28;20179;-62
2023/01/19 03:58:24;;;;;;;1.50;0.52;;;;;;;4.22;41.15;96644.47;5017647;28;20041;-63
2023/01/19 04:00:49;;;;;;;2.08;0.70;;;;;;;4.09;42.21;96602.13;5026327;28;20557;-61
2023/01/19 04:03:16;;;;;;;3.67;0.80;;;;;;;4.52;42.04;96642.34;5028251;28;20048;-61
2023/01/19 04:05:42;;;;;;;2.72;0.73;;;;;;;4.55;41.53;96647.22;5030259;28;20025;-61
2023/01/19 04:08:08;;;;;;;2.25;0.70;;;;;;;4.31;40.22;96609.31;5022505;28;20025;-62
2023/01/19 04:10:34;;;;;;;1.85;0.68;;;;;;;4.60;39.29;96652.69;5007453;28;20036;-61
2023/01/19 04:13:01;;;;;;;1.92;0.52;;;;;;;4.63;41.63;96649.81;5035076;28;20021;-62
2023/01/19 04:15:27;;;;;;;1.38;0.52;;;;;;;4.72;40.44;96663.50;5025166;28;20041;-64
2023/01/19 04:17:53;;;;;;;1.85;0.60;;;;;;;4.41;39.18;96609.97;5016803;28;20030;-60
2023/01/19 04:20:20;;;;;;;1.45;0.45;;;;;;;4.69;41.45;96653.53;5022534;28;20048;-63
2023/01/19 04:22:46;;;;;;;2.08;0.60;;;;;;;4.65;40.74;96656.56;5020779;28;20035;-62
2023/01/19 04:25:12;;;;;;;2.20;0.80;;;;;;;4.74;37.62;96659.00;5040741;28;20059;-62
2023/01/19 04:27:37;;;;;;;1.73;0.50;;;;;;;4.77;38.17;96655.34;5007339;28;20480;-60
2023/01/19 04:30:03;;;;;;;2.55;0.90;;;;;;;4.46;38.72;96631.91;5006902;28;20151;-62
2023/01/19 04:32:29;;;;;;;2.05;0.80;;;;;;;4.67;36.52;96664.94;5026684;28;20025;-62
2023/01/19 04:34:55;;;;;;;4.30;0.70;;;;;;;4.60;39.26;96659.63;5023610;28;20044;-61
2023/01/19 04:37:21;;;;;;;2.83;0.60;;;;;;;4.63;38.58;96649.00;5021886;28;20064;-61
2023/01/19 04:39:47;;;;;;;1.58;0.60;;;;;;;4.70;38.60;96678.31;5022890;28;20040;-63
2023/01/19 04:42:13;;;;;;;1.92;0.70;;;;;;;4.63;39.38;96664.44;5013972;28;20065;-65
2023/01/19 04:44:38;;;;;;;2.78;0.70;;;;;;;4.66;37.98;96678.78;5017392;28;20145;-62
2023/01/19 04:47:04;;;;;;;2.45;0.70;;;;;;;4.73;37.58;96679.78;5002270;28;20014;-61
2023/01/19 04:49:30;;;;;;;1.40;0.50;;;;;;;4.69;37.27;96687.00;5021560;28;20460;-62
2023/01/19 04:51:55;;;;;;;1.60;0.55;;;;;;;4.68;38.27;96687.16;5021778;28;20029;-63
2023/01/19 04:54:21;;;;;;;2.00;0.60;;;;;;;4.68;37.47;96692.31;5008872;28;20049;-61
2023/01/19 04:56:48;;;;;;;1.25;0.50;;;;;;;4.66;35.87;96681.38;5014294;28;20124;-60
2023/01/19 04:59:13;;;;;;;2.63;0.70;;;;;;;4.63;38.38;96690.19;5021700;28;20037;-62
2023/01/19 05:01:39;;;;;;;1.25;0.60;;;;;;;4.63;38.84;96703.06;5023029;28;20066;-61
2023/01/19 05:04:05;;;;;;;1.50;0.52;;;;;;;4.65;36.04;96697.75;5037662;28;20391;-62
2023/01/19 05:06:32;;;;;;;1.05;0.50;;;;;;;4.46;37.70;96660.19;5019353;28;20162;-62
2023/01/19 05:08:57;;;;;;;2.67;0.73;;;;;;;4.60;38.47;96695.66;5044041;28;20511;-60
2023/01/19 05:11:23;;;;;;;2.45;0.70;;;;;;;4.67;36.69;96716.44;5023212;28;20139;-61
2023/01/19 05:13:48;;;;;;;1.77;0.65;;;;;;;4.62;37.62;96711.75;5027377;28;20029;-64
2023/01/19 05:16:15;;;;;;;1.95;0.65;;;;;;;4.55;38.82;96714.13;5024216;28;20029;-59
2023/01/19 05:18:40;;;;;;;2.50;0.80;;;;;;;4.68;37.69;96705.19;5028129;28;20037;-61
2023/01/19 05:21:06;;;;;;;1.92;0.65;;;;;;;4.63;35.83;96709.00;5009565;28;20602;-65
2023/01/19 05:23:32;;;;;;;1.38;0.55;;;;;;;4.41;35.59;96664.03;5009424;28;20115;-61
2023/01/19 05:26:02;;;;;;;2.10;0.70;;;;;;;4.63;38.70;96716.72;5043951;28;20063;-61
2023/01/19 05:28:28;;;;;;;2.00;0.80;;;;;;;4.60;38.66;96719.63;5017788;28;20100;-61
2023/01/19 05:30:54;;;;;;;1.33;0.50;;;;;;;4.65;37.46;96726.88;5022777;28;20047;-62
2023/01/19 05:33:20;;;;;;;2.63;0.60;;;;;;;4.58;36.87;96707.84;5010167;28;20033;-63
2023/01/19 05:35:51;;;;;;;2.00;0.80;;;;;;;4.61;37.46;96721.22;5037806;28;20116;-64
2023/01/19 05:38:17;;;;;;;2.08;0.60;;;;;;;4.58;38.07;96718.97;5023857;28;20036;-61
2023/01/19 05:40:42;;;;;;;1.85;0.57;;;;;;;4.58;37.47;96720.72;5012255;28;20040;-61
2023/01/19 05:43:08;;;;;;;1.80;0.77;;;;;;;4.65;38.03;96724.31;5009995;28;20030;-63
2023/01/19 05:45:34;;;;;;;1.58;0.60;;;;;;;4.65;38.99;96744.91;5012204;28;20037;-61
2023/01/19 05:47:59;;;;;;;1.02;0.50;;;;;;;4.61;39.46;96731.53;5009997;28;20041;-61
2023/01/19 05:50:25;;;;;;;1.50;0.60;;;;;;;4.56;37.29;96759.50;5014008;28;20575;-63
2023/01/19 05:52:54;;;;;;;2.50;0.70;;;;;;;4.53;37.66;96728.94;5031778;28;20025;-61
2023/01/19 05:55:20;;;;;;;1.90;0.60;;;;;;;4.65;37.58;96741.53;5028239;28;20447;-60
2023/01/19 05:57:45;;;;;;;1.67;0.55;;;;;;;4.64;37.09;96738.16;5024515;28;20455;-60
2023/01/19 06:00:11;;;;;;;1.55;0.40;;;;;;;4.59;36.78;96743.75;5004797;28;20121;-63
2023/01/19 06:02:37;;;;;;;1.45;0.50;;;;;;;4.55;32.43;96757.09;5027294;28;20044;-62
2023/01/19 06:05:03;;;;;;;2.10;0.65;;;;;;;4.45;32.94;96740.94;5024833;28;20037;-61
2023/01/19 06:07:30;;;;;;;2.28;0.75;;;;;;;4.46;38.71;96753.66;5036258;28;20044;-61
2023/01/19 06:09:56;;;;;;;1.17;0.50;;;;;;;4.65;35.08;96759.53;5011264;28;20083;-63
2023/01/19 06:12:21;;;;;;;1.40;0.52;;;;;;;4.65;35.46;96762.13;5019685;28;20421;-61
2023/01/19 06:14:48;;;;;;;1.65;0.60;;;;;;;4.58;34.67;96764.50;5010507;28;20033;-61
2023/01/19 06:17:13;;;;;;;1.98;0.55;;;;;;;4.31;35.46;96732.00;5011168;28;20043;-62
2023/01/19 06:19:39;;;;;;;2.03;0.70;;;;;;;4.48;33.20;96754.31;5022106;28;20025;-63
2023/01/19 06:22:06;;;;;;;2.60;0.60;;;;;;;4.53;35.64;96770.09;5036904;28;20029;-61
2023/01/19 06:24:31;;;;;;;2.22;0.65;;;;;;;4.51;37.91;96771.19;5007379;28;20057;-64
2023/01/19 06:26:59;;;;;;;2.30;0.70;;;;;;;4.57;35.40;96786.06;5017184;28;20028;-61
2023/01/19 06:29:27;;;;;;;2.05;0.60;;;;;;;4.56;35.39;96769.81;5007354;28;20447;-60
2023/01/19 06:31:52;;;;;;;1.38;0.50;;;;;;;4.57;33.15;96784.28;5020933;28;20530;-62
2023/01/19 06:34:18;;;;;;;1.90;0.70;;;;;;;4.50;34.01;96779.91;5020997;28;20128;-61
2023/01/19 06:36:45;;;;;;;1.38;0.52;;;;;;;4.50;34.17;96772.97;5020463;28;20029;-63
2023/01/19 06:39:11;;;;;;;1.25;0.50;;;;;;;4.57;36.13;96784.28;5014005;28;20566;-61
2023/01/19 06:41:37;;;;;;;2.40;0.60;;;;;;;4.49;36.75;96767.97;5002933;28;20128;-63
2023/01/19 06:44:03;;;;;;;1.95;0.70;;;;;;;4.63;36.96;96786.25;5006786;28;20091;-61
2023/01/19 06:46:28;;;;;;;1.75;0.63;;;;;;;4.60;38.55;96789.13;5020164;28;20915;-61
2023/01/19 06:48:54;;;;;;;1.40;0.50;;;;;;;4.58;38.58;96779.94;5014018;28;20064;-60
2023/01/19 06:51:20;;;;;;;1.92;0.60;;;;;;;4.61;37.56;96788.16;5022039;28;20030;-60
2023/01/19 06:53:46;;;;;;;1.55;0.52;;;;;;;4.67;37.81;96778.22;5016707;28;20021;-60
2023/01/19 06:56:11;;;;;;;1.20;0.43;;;;;;;4.61;35.26;96797.66;5007206;28;20025;-60
2023/01/19 06:58:37;;;;;;;1.85;0.63;;;;;;;4.46;36.99;96766.53;5018894;28;20122;-61
2023/01/19 07:01:04;;;;;;;1.52;0.50;;;;;;;4.43;38.59;96766.81;5020817;28;20058;-62
2023/01/19 07:03:30;;;;;;;1.48;0.55;;;;;;;4.74;38.82;96800.63;5007364;28;20029;-61
2023/01/19 07:05:55;;;;;;;2.30;0.65;;;;;;;4.66;36.29;96794.66;5022593;28;20064;-63
2023/01/19 07:08:22;;;;;;;1.40;0.50;;;;;;;4.74;35.13;96810.94;5010133;28;20065;-64
2023/01/19 07:10:47;;;;;;;2.13;0.90;;;;;;;4.74;35.21;96805.78;5014355;28;20024;-63
2023/01/19 07:13:13;;;;;;;0.93;0.40;;;;;;;4.79;35.15;96806.13;5008608;28;20067;-64
2023/01/19 07:15:39;;;;;;;1.65;0.60;;;;;;;4.72;37.09;96812.03;5009919;28;20029;-63
2023/01/19 07:18:06;;;;;;;1.63;0.77;;;;;;;4.73;35.02;96806.75;5006051;28;20052;-61
2023/01/19 07:20:33;;;;;;;1.65;0.60;;;;;;;4.78;36.29;96811.44;5019564;28;20068;-62
2023/01/19 07:22:59;;;;;;;1.77;0.70;;;;;;;4.77;37.30;96817.56;5023519;28;20037;-65
2023/01/19 07:25:25;;;;;;;1.75;0.50;;;;;;;4.77;36.38;96833.81;5012068;28;20942;-60
2023/01/19 07:27:55;;;;;;;1.58;0.47;;;;;;;4.75;36.16;96828.00;5018600;28;20021;-62
2023/01/19 07:30:20;;;;;;;1.50;0.50;;;;;;;4.71;35.26;96846.47;5014593;28;20028;-62
2023/01/19 07:32:46;;;;;;;1.02;0.50;;;;;;;4.75;37.71;96829.78;5028232;28;20032;-63
2023/01/19 07:35:11;;;;;;;2.95;0.68;;;;;;;4.71;34.13;96837.00;5038428;28;20029;-63
2023/01/19 07:37:37;;;;;;;1.65;0.60;;;;;;;4.76;33.96;96839.94;5019860;28;20028;-63
2023/01/19 07:40:03;;;;;;;1.63;0.50;;;;;;;4.73;33.46;96842.00;5022554;28;20021;-62
2023/01/19 07:42:28;;;;;;;1.45;0.60;;;;;;;4.79;37.31;96856.84;5015048;28;20036;-63
2023/01/19 07:44:54;;;;;;;1.92;0.60;;;;;;;4.80;35.07;96861.84;5021256;28;20484;-61
2023/01/19 07:47:19;;;;;;;2.25;0.75;;;;;;;4.77;35.21;96875.00;5003789;28;20037;-61
2023/01/19 07:49:45;;;;;;;2.20;0.60;;;;;;;4.72;35.12;96861.75;5015211;28;20496;-60
2023/01/19 07:52:11;;;;;;;2.97;0.95;;;;;;;4.53;34.45;96831.88;5017080;28;20017;-63
2023/01/19 07:54:36;;;;;;;1.15;0.50;;;;;;;4.57;32.99;96852.97;5005603;28;20476;-62
2023/01/19 07:57:02;;;;;;;0.93;0.35;;;;;;;4.68;32.91;96875.91;5042607;28;20417;-62
2023/01/19 07:59:29;;;;;;;1.25;0.50;;;;;;;4.75;31.58;96876.13;5008271;28;20033;-63
2023/01/19 08:01:56;;;;;;;0.73;0.40;;;;;;;4.78;33.80;96883.53;5013792;28;20032;-61
2023/01/19 08:04:22;;;;;;;3.15;0.52;;;;;;;4.80;30.68;96881.59;5005638;28;20028;-65
2023/01/19 08:06:47;;;;;;;2.33;0.60;;;;;;;4.81;34.18;96891.75;5024193;28;20033;-62
2023/01/19 08:09:13;;;;;;;1.58;0.55;;;;;;;4.78;35.69;96894.66;5006348;28;20028;-64
2023/01/19 08:11:39;;;;;;;1.98;0.70;;;;;;;4.69;35.03;96881.84;5003186;28;20021;-61
2023/01/19 08:14:04;;;;;;;1.45;0.60;;;;;;;4.75;31.16;96914.75;5019397;28;20021;-61
2023/01/19 08:16:30;;;;;;;1.50;0.40;;;;;;;4.80;32.45;96925.38;5009518;28;20040;-61
2023/01/19 08:18:56;;;;;;;1.75;0.60;;;;;;;4.76;34.39;96917.19;5009425;28;20114;-61
2023/01/19 08:21:21;;;;;;;1.52;0.50;;;;;;;4.86;35.22;96916.28;5022038;28;20048;-62
2023/01/19 08:23:54;;;;;;;1.45;0.57;;;;;;;4.86;35.03;96932.53;5017344;28;20025;-61
2023/01/19 08:26:26;;;;;;;1.00;0.40;;;;;;;4.63;35.29;96939.91;5020908;28;20037;-61
2023/01/19 08:28:53;;;;;;;1.27;0.43;;;;;;;4.48;37.27;96952.50;5002171;28;20029;-64
2023/01/19 08:31:19;;;;;;;1.92;0.50;;;;;;;4.42;36.76;96946.16;5021234;28;20029;-62
2023/01/19 08:33:44;;;;;;;1.77;0.60;;;;;;;4.10;36.99;96918.34;5013992;28;20710;-61
2023/01/19 08:36:10;;;;;;;2.15;0.57;;;;;;;4.36;38.32;96958.78;5010952;28;20029;-63
2023/01/19 08:38:38;;;;;;;1.55;0.50;;;;;;;4.26;38.30;96969.16;5018015;28;20067;-61
2023/01/19 08:41:04;;;;;;;0.82;0.40;;;;;;;4.12;40.63;96979.94;5011845;28;20069;-62
2023/01/19 08:43:29;;;;;;;1.85;0.60;;;;;;;4.20;37.85;97004.00;5009835;28;20136;-63
2023/01/19 08:45:55;;;;;;;2.30;0.55;;;;;;;4.28;40.17;96995.56;5045706;28;20083;-61
2023/01/19 08:48:21;;;;;;;2.85;0.70;;;;;;;4.22;38.92;96998.72;5011353;28;20060;-63
2023/01/19 08:50:48;;;;;;;1.70;0.60;;;;;;;4.20;38.18;96988.56;5020615;28;20453;-62
2023/01/19 08:53:14;;;;;;;3.03;0.90;;;;;;;4.22;39.12;97014.16;5021868;28;20116;-63
2023/01/19 08:55:39;;;;;;;4.57;1.52;;;;;;;3.91;42.47;97027.28;5029002;28;20035;-62
2023/01/19 08:58:07;;;;;;;1.08;0.40;;;;;;;3.48;45.12;97049.19;5022499;28;20017;-62
2023/01/19 09:00:34;;;;;;;2.20;0.85;;;;;;;3.46;46.79;97040.81;5010170;28;20426;-62
2023/01/19 09:03:03;;;;;;;1.30;0.40;;;;;;;3.47;46.98;97047.56;5023076;28;20032;-63
2023/01/19 09:05:34;;;;;;;4.25;1.00;;;;;;;3.47;47.09;97063.00;5009506;28;20801;-62
2023/01/19 09:08:01;;;;;;;0.82;0.30;;;;;;;3.23;47.84;97053.13;5034544;28;20028;-61
2023/01/19 09:10:30;;;;;;;2.08;0.65;;;;;;;3.29;49.21;97067.22;5026461;28;20029;-61
2023/01/19 09:12:57;;;;;;;0.75;0.38;;;;;;;3.35;48.66;97066.66;5036380;28;20024;-62
2023/01/19 09:15:22;;;;;;;2.05;0.85;;;;;;;3.35;48.52;97064.09;5010968;28;20265;-61
2023/01/19 09:17:51;;;;;;;3.83;1.10;;;;;;;3.30;47.86;97063.69;5024579;28;20094;-61
2023/01/19 09:20:16;;;;;;;0.85;0.32;;;;;;;3.10;48.91;97075.72;5008016;28;20045;-62
2023/01/19 09:22:43;;;;;;;1.38;0.47;;;;;;;3.14;51.20;97098.44;5017744;28;20766;-62
2023/01/19 09:25:09;;;;;;;2.80;0.90;;;;;;;2.88;54.26;97098.13;5022024;28;20090;-63
2023/01/19 09:27:34;;;;;;;1.80;0.70;;;;;;;2.88;54.50;97086.13;5027194;28;21895;-61
2023/01/19 09:30:01;;;;;;;1.30;0.50;;;;;;;2.96;54.49;97118.84;5034056;28;20062;-62
2023/01/19 09:32:26;;;;;;;0.80;0.40;;;;;;;2.98;54.45;97105.88;5021608;28;20071;-62
2023/01/19 09:34:53;;;;;;;1.83;0.57;;;;;;;3.05;56.19;97115.47;5027080;28;20284;-64
2023/01/19 09:37:20;;;;;;;1.23;0.50;;;;;;;2.93;57.06;97123.44;5039053;28;20021;-63
2023/01/19 09:39:45;;;;;;;2.10;0.70;;;;;;;2.86;57.40;97128.28;5011497;28;20637;-62
2023/01/19 09:42:24;;;;;;;2.13;0.70;;;;;;;2.82;58.61;97129.50;5006914;28;20121;-62
2023/01/19 09:44:52;;;;;;;1.90;0.60;;;;;;;2.88;60.54;97139.22;5039573;28;20127;-62
2023/01/19 09:47:22;;;;;;;0.95;0.40;;;;;;;2.81;56.60;97138.13;5029610;28;20167;-62
2023/01/19 09:50:23;;;;;;;1.83;0.52;;;;;;;2.85;60.36;97142.06;5026934;28;20091;-63
2023/01/19 09:52:55;;;;;;;1.65;0.60;;;;;;;2.83;60.32;97143.94;5003894;28;20037;-62
2023/01/19 09:55:25;;;;;;;1.08;0.40;;;;;;;2.73;61.20;97154.19;5023815;28;20095;-62
2023/01/19 09:57:52;;;;;;;1.45;0.50;;;;;;;2.64;60.30;97147.28;5025291;28;20139;-62
2023/01/19 10:00:18;;;;;;;1.38;0.50;;;;;;;2.59;62.99;97160.50;5044088;28;20028;-62
2023/01/19 10:02:51;;;;;;;2.10;0.40;;;;;;;2.54;63.65;97144.69;5009677;28;20368;-62
2023/01/19 10:05:24;;;;;;;1.75;0.52;;;;;;;2.58;62.78;97150.38;5023275;28;20419;-61
2023/01/19 10:08:12;;;;;;;2.22;0.45;;;;;;;2.55;63.51;97155.75;5027538;28;20056;-62
2023/01/19 10:10:41;;;;;;;1.73;0.52;;;;;;;2.47;65.52;97144.38;5042542;28;20025;-63
2023/01/19 10:13:31;;;;;;;1.80;0.80;;;;;;;2.50;65.56;97154.41;5010870;28;20478;-62
2023/01/19 10:16:00;;;;;;;2.25;0.60;;;;;;;2.49;66.40;97154.53;5039834;28;20287;-62
2023/01/19 10:18:34;;;;;;;3.15;0.40;;;;;;;2.58;65.17;97148.59;5043927;28;20029;-62
2023/01/19 10:21:03;;;;;;;1.77;0.60;;;;;;;2.59;63.52;97145.13;5012458;28;20025;-62
2023/01/19 10:23:37;;;;;;;0.88;0.32;;;;;;;2.77;63.17;97142.69;5038648;28;20104;-62
2023/01/19 10:26:35;;;;;;;1.13;0.50;;;;;;;2.93;62.21;97118.28;5009519;28;20171;-62
2023/01/19 10:29:29;;;;;;;1.42;0.40;;;;;;;3.14;58.63;97125.88;5034495;28;20039;-62
2023/01/19 10:32:04;;;;;;;1.75;0.70;;;;;;;3.21;56.87;97124.38;5006981;28;20033;-62
2023/01/19 10:34:29;;;;;;;0.65;0.30;;;;;;;3.43;51.40;97120.72;5016620;28;20120;-63
2023/01/19 10:37:09;;;;;;;1.08;0.35;;;;;;;3.39;51.66;97109.09;5009865;28;20041;-62
2023/01/19 10:39:34;;;;;;;1.27;0.50;;;;;;;3.42;52.72;97099.38;5025909;28;20040;-62
2023/01/19 10:42:02;;;;;;;1.33;0.40;;;;;;;3.51;51.89;97114.94;5008579;28;20080;-63
2023/01/19 10:44:34;;;;;;;0.75;0.30;;;;;;;3.49;50.85;97115.06;5024548;28;20032;-62
2023/01/19 10:47:01;;;;;;;0.52;0.28;;;;;;;3.49;51.74;97109.09;5016664;28;20052;-63
2023/01/19 10:49:35;;;;;;;0.90;0.43;;;;;;;3.46;50.62;97117.91;5008838;28;20159;-64
2023/01/19 10:52:01;;;;;;;2.38;0.50;;;;;;;3.29;52.62;97114.25;4993641;28;20037;-63
2023/01/19 10:54:29;;;;;;;1.25;0.35;;;;;;;3.38;54.26;97115.22;5023721;28;20056;-62
2023/01/19 10:56:57;;;;;;;0.95;0.35;;;;;;;3.43;52.18;97113.03;4991607;28;20029;-64
2023/01/19 10:59:51;;;;;;;0.80;0.22;;;;;;;3.45;52.52;97117.09;5028599;28;20119;-64
2023/01/19 11:02:19;;;;;;;1.70;0.50;;;;;;;3.44;52.55;97127.50;5008024;28;20067;-64
2023/01/19 11:04:51;;;;;;;0.93;0.30;;;;;;;3.44;52.79;97110.31;5028141;28;20065;-63
2023/01/19 11:07:32;;;;;;;1.67;0.52;;;;;;;3.37;53.85;97118.72;5016903;28;20060;-63
2023/01/19 11:10:21;;;;;;;1.92;0.50;;;;;;;3.41;52.67;97112.34;4994401;28;20041;-62
2023/01/19 11:13:11;;;;;;;2.22;0.73;;;;;;;3.31;52.69;97106.44;5008191;28;20056;-63
2023/01/19 11:15:57;;;;;;;1.00;0.40;;;;;;;3.34;54.28;97111.28;5017635;28;20127;-62
2023/01/19 11:18:28;;;;;;;1.27;0.40;;;;;;;3.43;53.44;97101.00;5024916;28;20049;-62
2023/01/19 11:21:11;;;;;;;2.63;0.70;;;;;;;3.51;51.64;97099.50;5008803;28;20045;-62
2023/01/19 11:23:51;;;;;;;1.10;0.38;;;;;;;3.34;51.18;97065.84;5025750;28;20036;-63
2023/01/19 11:26:30;;;;;;;0.55;0.30;;;;;;;3.59;52.03;97100.44;5025378;28;20037;-63
2023/01/19 11:28:57;;;;;;;0.77;0.32;;;;;;;3.59;53.25;97100.44;5017043;28;20559;-63
2023/01/19 11:31:33;;;;;;;0.68;0.32;;;;;;;3.59;51.57;97102.19;5026496;28;20551;-61
2023/01/19 11:34:03;;;;;;;1.13;0.40;;;;;;;3.34;51.61;97065.84;5007465;28;20679;-62
2023/01/19 11:36:35;;;;;;;1.45;0.43;;;;;;;3.38;54.22;97095.47;5023574;28;20731;-62
2023/01/19 11:39:22;;;;;;;0.90;0.30;;;;;;;3.41;55.28;97105.47;5016261;28;20025;-63
2023/01/19 11:41:53;;;;;;;0.57;0.30;;;;;;;3.38;54.77;97118.59;5024174;28;20033;-63
2023/01/19 11:44:19;;;;;;;1.35;0.22;;;;;;;3.38;54.26;97107.50;4992166;28;20029;-62
2023/01/19 11:46:47;;;;;;;2.10;0.52;;;;;;;3.41;54.21;97099.50;5015390;28;20484;-62
2023/01/19 11:49:50;;;;;;;1.35;0.40;;;;;;;3.42;55.36;97121.69;5016057;28;20025;-61
2023/01/19 11:52:21;;;;;;;0.20;0.20;;;;;;;3.38;56.26;97099.78;5025300;28;20032;-61
2023/01/19 11:55:24;;;;;;;0.85;0.30;;;;;;;3.37;56.82;97090.44;5024151;28;20037;-58
2023/01/19 11:57:51;;;;;;;1.17;0.30;;;;;;;3.21;58.39;97078.97;4968516;28;20036;-63